Terminal Aerodrome Forecast
Issued by NWS Corpus Christi, TX

Home | Current Version | Previous Version | Text Only | Print | Product List | Glossary On
Versions: 1 2 3 4 5 6 7 8 9 10 11 12 13 14
624
FTUS44 KCRP 121018 AAB
TAFCRP
TAF AMD
KCRP 121018Z 1210/1306 18008KT 1SM BR SCT005
      TEMPO 1210/1213 1/2SM FG BKN005
     FM121600 16012G18KT P6SM SCT050
     FM130000 15008KT P6SM SKC=

USA.gov is the U.S. government's official web portal to all federal, state and local government web resources and services.